メインページ
METAR-TAF:

METAR-TAF

空港 :

Branch County Memorial Airport

Coldwater, ミシガン州, アメリカ合衆国

緯度: 41-56N, 経度: 085-03-09W, 海抜: 292m

現時点の気象観測

当レポートは22分前の13:55(UTC)に作成
南/南西の風 5kt
気温 27°C
湿度 70%
気圧 1013 hPa
視程: 16.1km
晴天

METAR: KOEB 201355Z AUTO 21005KT 10SM CLR 27/21 A2991 RMK AO2 T02690207

時間: 10:17 (14:17 UTC)


TAF: 見つかりません

4,000以上の空港の気象観測と天気予報(METAR報とTAF報)

利用可能な観測所は地図上に黄色い丸と赤い丸で示す。

丸の上にカーソルを重ねると観測所名を参照できる。

次にクリックすると気象観測と天気予報を参照できる。

マップの切り替え:黒色「×」印の緑ボタンをクリックして拡大、「-」印の緑ボタンをクリックして縮小、緑色の三角印をクリックして隣りの地図に切り替え


METAR-TAF: